createdAt,value
2018-01-24T00:00:21.085Z,3.13
2018-01-24T00:03:26.017Z,2.67
2018-01-24T00:06:31.513Z,3.03
2018-01-24T00:09:36.789Z,3.10
2018-01-24T00:12:41.549Z,2.90
2018-01-24T00:15:46.105Z,3.53
2018-01-24T00:18:51.489Z,3.30
2018-01-24T00:21:56.465Z,3.03
2018-01-24T00:25:01.346Z,3.37
2018-01-24T00:28:06.517Z,2.80
2018-01-24T00:31:11.922Z,2.57
2018-01-24T00:34:17.014Z,2.40
2018-01-24T00:37:22.077Z,2.93
2018-01-24T00:40:27.041Z,3.07
2018-01-24T00:43:31.800Z,2.77
2018-01-24T00:46:37.169Z,2.50
2018-01-24T00:49:41.810Z,2.80
2018-01-24T00:52:46.601Z,2.70
2018-01-24T00:55:51.341Z,2.53
2018-01-24T00:58:56.185Z,2.50
2018-01-24T01:02:00.997Z,2.63
2018-01-24T01:05:07.177Z,3.03
2018-01-24T01:08:12.150Z,2.50
2018-01-24T01:11:17.578Z,3.10
2018-01-24T01:14:23.049Z,3.00
2018-01-24T01:17:28.113Z,2.23
2018-01-24T01:20:32.718Z,3.13
2018-01-24T01:23:38.034Z,3.23
2018-01-24T01:26:43.337Z,3.03
2018-01-24T01:29:47.921Z,2.87
2018-01-24T01:32:53.589Z,2.90
2018-01-24T01:35:59.022Z,2.90
2018-01-24T01:39:04.233Z,2.90
2018-01-24T01:42:09.261Z,3.47
2018-01-24T01:45:16.429Z,2.87
2018-01-24T01:48:21.405Z,2.80
2018-01-24T01:51:26.051Z,3.00
2018-01-24T01:54:31.401Z,3.00
2018-01-24T01:57:37.145Z,3.83
2018-01-24T02:00:42.094Z,2.90
2018-01-24T02:03:46.973Z,3.17
2018-01-24T02:06:51.549Z,3.03
2018-01-24T02:09:56.337Z,3.17
2018-01-24T02:13:01.117Z,3.30
2018-01-24T02:16:06.224Z,2.60
2018-01-24T02:19:12.086Z,2.60
2018-01-24T02:22:17.485Z,2.60
2018-01-24T02:25:22.121Z,3.67
2018-01-24T02:28:27.154Z,2.40
2018-01-24T02:31:32.945Z,2.80
2018-01-24T02:34:38.255Z,3.20
2018-01-24T02:37:42.949Z,3.03
2018-01-24T02:40:48.306Z,2.90
2018-01-24T02:43:53.429Z,2.57
2018-01-24T02:46:58.883Z,3.43
2018-01-24T02:50:05.105Z,3.27
2018-01-24T02:53:09.645Z,4.13
2018-01-24T02:56:15.014Z,2.70
2018-01-24T02:59:19.630Z,1.77
2018-01-24T03:02:25.216Z,2.23
2018-01-24T03:05:30.030Z,2.43
2018-01-24T03:08:35.016Z,1.93
2018-01-24T03:11:40.781Z,2.20
2018-01-24T03:14:45.321Z,2.93
2018-01-24T03:17:50.433Z,3.20
2018-01-24T03:20:55.753Z,2.50
2018-01-24T03:24:00.581Z,3.70
2018-01-24T03:27:06.601Z,2.33
2018-01-24T03:30:11.658Z,2.97
2018-01-24T03:33:16.453Z,3.10
2018-01-24T03:36:21.406Z,2.23
2018-01-24T03:39:26.365Z,2.20
2018-01-24T03:42:31.605Z,2.80
2018-01-24T03:45:36.612Z,1.60
2018-01-24T03:48:41.454Z,2.40
2018-01-24T03:51:47.258Z,2.47
2018-01-24T03:54:52.329Z,2.20
2018-01-24T03:57:57.446Z,2.83
2018-01-24T04:01:03.161Z,2.30
2018-01-24T04:04:08.334Z,2.13
2018-01-24T04:07:16.776Z,1.50
2018-01-24T04:10:21.749Z,2.03
2018-01-24T04:13:26.265Z,2.40
2018-01-24T04:16:31.761Z,2.50
2018-01-24T04:19:36.949Z,2.67
2018-01-24T04:22:41.665Z,2.30
2018-01-24T04:25:46.945Z,2.50
2018-01-24T04:28:51.837Z,3.30
2018-01-24T04:31:56.578Z,2.40
2018-01-24T04:35:01.621Z,2.80
2018-01-24T04:38:06.757Z,2.30
2018-01-24T04:41:11.789Z,3.10
2018-01-24T04:44:16.985Z,2.30
2018-01-24T04:47:22.501Z,2.10
2018-01-24T04:50:27.409Z,2.20
2018-01-24T04:53:33.552Z,2.33
2018-01-24T04:56:38.322Z,2.37
2018-01-24T04:59:43.528Z,2.30
2018-01-24T05:02:49.541Z,2.30
2018-01-24T05:05:54.873Z,1.87
2018-01-24T05:08:59.521Z,2.30
2018-01-24T05:12:04.624Z,2.10
2018-01-24T05:15:09.401Z,2.10
2018-01-24T05:18:15.137Z,2.67
2018-01-24T05:21:19.354Z,2.30
2018-01-24T05:24:25.630Z,2.67
2018-01-24T05:27:30.894Z,2.53
2018-01-24T05:30:36.839Z,2.10
2018-01-24T05:33:41.986Z,2.83
2018-01-24T05:36:46.607Z,2.40
2018-01-24T05:39:51.915Z,2.50
2018-01-24T05:42:56.973Z,2.80
2018-01-24T05:46:02.370Z,2.30
2018-01-24T05:49:07.791Z,2.80
2018-01-24T05:52:13.037Z,3.07
2018-01-24T05:55:18.367Z,2.47
2018-01-24T05:58:24.497Z,2.87
2018-01-24T06:01:29.689Z,3.93
2018-01-24T06:04:35.449Z,2.17
2018-01-24T06:07:40.666Z,2.70
2018-01-24T06:10:45.801Z,2.30
2018-01-24T06:13:50.674Z,2.50
2018-01-24T06:16:56.029Z,2.63
2018-01-24T06:20:02.049Z,2.20
2018-01-24T06:23:07.410Z,2.80
2018-01-24T06:26:12.208Z,2.47
2018-01-24T06:29:17.597Z,2.50
2018-01-24T06:32:23.006Z,2.60
2018-01-24T06:35:28.737Z,2.50
2018-01-24T06:38:33.966Z,2.63
2018-01-24T06:41:39.222Z,2.40
2018-01-24T06:44:44.425Z,2.67
2018-01-24T06:47:49.264Z,2.57
2018-01-24T06:50:53.912Z,2.90
2018-01-24T06:53:58.975Z,2.53
2018-01-24T06:57:04.417Z,2.40
2018-01-24T07:00:09.682Z,3.60
2018-01-24T07:03:15.042Z,2.47
2018-01-24T07:06:19.617Z,2.80
2018-01-24T07:09:24.749Z,2.47
2018-01-24T07:12:41.309Z,2.60
2018-01-24T07:15:46.021Z,2.90
2018-01-24T07:18:51.419Z,2.23
2018-01-24T07:21:57.481Z,2.97
2018-01-24T07:25:02.858Z,3.07
2018-01-24T07:28:08.101Z,2.73
2018-01-24T07:31:12.873Z,2.40
2018-01-24T07:34:17.805Z,2.70
2018-01-24T07:37:23.652Z,2.23
2018-01-24T07:40:28.468Z,2.77
2018-01-24T07:43:33.313Z,1.93
2018-01-24T07:46:39.113Z,2.40
2018-01-24T07:49:44.401Z,1.93
2018-01-24T07:52:48.917Z,2.37
2018-01-24T07:55:53.933Z,2.50
2018-01-24T07:58:58.970Z,3.00
2018-01-24T08:02:04.381Z,2.47
2018-01-24T08:05:10.393Z,2.13
2018-01-24T08:08:15.465Z,2.80
2018-01-24T08:11:20.329Z,2.23
2018-01-24T08:14:25.073Z,2.70
2018-01-24T08:17:30.084Z,2.47
2018-01-24T08:20:35.301Z,2.50
2018-01-24T08:23:40.485Z,1.90
2018-01-24T08:26:45.463Z,2.83
2018-01-24T08:29:50.833Z,2.30
2018-01-24T08:32:55.968Z,2.30
2018-01-24T08:36:01.337Z,2.17
2018-01-24T08:39:06.944Z,1.37
2018-01-24T08:42:11.530Z,2.20
2018-01-24T08:45:16.229Z,2.70
2018-01-24T08:48:21.333Z,2.33
2018-01-24T08:51:26.906Z,1.83
2018-01-24T08:54:31.949Z,2.43
2018-01-24T08:57:37.813Z,3.10
2018-01-24T09:00:42.653Z,2.97
2018-01-24T09:03:47.961Z,2.70
2018-01-24T09:06:53.010Z,2.10
2018-01-24T09:09:58.489Z,1.83
2018-01-24T09:13:03.841Z,2.30
2018-01-24T09:16:09.473Z,2.33
2018-01-24T09:19:14.437Z,2.23
2018-01-24T09:22:19.604Z,2.70
2018-01-24T09:25:24.517Z,2.53
2018-01-24T09:28:30.129Z,2.30
2018-01-24T09:31:35.041Z,2.10
2018-01-24T09:34:40.973Z,2.50
2018-01-24T09:37:46.265Z,2.23
2018-01-24T09:40:51.377Z,2.50
2018-01-24T09:43:56.337Z,2.30
2018-01-24T09:47:01.629Z,2.30
2018-01-24T09:50:07.125Z,2.40
2018-01-24T09:53:12.178Z,3.10
2018-01-24T09:56:17.117Z,2.70
2018-01-24T09:59:22.026Z,2.03
2018-01-24T10:02:27.333Z,1.20
2018-01-24T10:05:32.436Z,2.00
2018-01-24T10:08:37.498Z,1.90
2018-01-24T10:11:42.105Z,1.40
2018-01-24T10:14:46.894Z,1.80
2018-01-24T10:17:52.721Z,1.40
2018-01-24T10:20:57.530Z,1.53
2018-01-24T10:24:02.809Z,1.20
2018-01-24T10:27:08.093Z,1.30
2018-01-24T10:30:13.333Z,1.40
2018-01-24T10:33:18.183Z,1.67
2018-01-24T10:36:22.869Z,1.10
2018-01-24T10:39:27.870Z,1.20
2018-01-24T10:42:33.317Z,1.43
2018-01-24T10:45:38.493Z,1.23
2018-01-24T10:48:42.999Z,1.20
2018-01-24T10:51:47.986Z,1.47
2018-01-24T10:54:54.033Z,1.50
2018-01-24T10:57:58.993Z,1.67
2018-01-24T11:01:03.933Z,1.17
2018-01-24T11:04:09.829Z,1.10
2018-01-24T11:07:14.993Z,2.00
2018-01-24T11:10:19.600Z,1.37
2018-01-24T11:13:24.341Z,1.47
2018-01-24T11:16:29.224Z,1.70
2018-01-24T11:19:34.745Z,1.37
2018-01-24T11:22:40.176Z,1.17
2018-01-24T11:25:44.989Z,1.00
2018-01-24T11:28:50.567Z,1.20
2018-01-24T11:31:55.277Z,1.07
2018-01-24T11:35:00.224Z,1.57
2018-01-24T11:38:04.757Z,1.30
2018-01-24T11:41:09.950Z,1.10
2018-01-24T11:44:14.605Z,1.40
2018-01-24T11:47:19.246Z,1.17
2018-01-24T11:50:24.014Z,0.90
2018-01-24T11:53:29.633Z,1.20
2018-01-24T11:56:34.598Z,1.00
2018-01-24T11:59:39.853Z,1.40
2018-01-24T12:02:45.157Z,0.97
2018-01-24T12:05:50.455Z,1.60
2018-01-24T12:08:55.053Z,1.23
2018-01-24T12:12:00.742Z,1.47
2018-01-24T12:15:06.725Z,0.97
2018-01-24T12:18:12.426Z,1.50
2018-01-24T12:21:17.167Z,1.40
2018-01-24T12:24:22.642Z,1.30
2018-01-24T12:27:27.972Z,1.63
2018-01-24T12:30:32.798Z,2.40
2018-01-24T12:33:37.337Z,1.70
2018-01-24T12:36:42.073Z,1.60
2018-01-24T12:39:46.731Z,1.40
2018-01-24T12:42:51.858Z,1.40
2018-01-24T12:45:57.998Z,1.33
2018-01-24T12:49:03.202Z,0.90
2018-01-24T12:52:09.058Z,1.77
2018-01-24T12:55:14.266Z,1.20
2018-01-24T12:58:19.629Z,1.30
2018-01-24T13:01:24.269Z,1.10
2018-01-24T13:04:28.913Z,1.27
2018-01-24T13:07:34.369Z,0.90
2018-01-24T13:10:39.216Z,1.20
2018-01-24T13:13:45.304Z,1.20
2018-01-24T13:16:50.214Z,1.40
2018-01-24T13:19:55.145Z,1.30
2018-01-24T13:23:00.021Z,0.93
2018-01-24T13:26:05.251Z,1.17
2018-01-24T13:29:18.534Z,1.37
2018-01-24T13:32:23.625Z,1.23
2018-01-24T13:35:29.520Z,1.20
2018-01-24T13:38:34.984Z,1.33
2018-01-24T13:41:39.517Z,1.20
2018-01-24T13:44:44.769Z,1.20
2018-01-24T13:47:50.130Z,1.30
2018-01-24T13:50:54.805Z,1.07
2018-01-24T13:54:00.051Z,1.23
2018-01-24T13:57:05.301Z,1.23
2018-01-24T14:00:10.985Z,1.80
2018-01-24T14:03:15.935Z,1.10
2018-01-24T14:06:21.181Z,1.43
2018-01-24T14:09:26.385Z,1.20
2018-01-24T14:12:31.196Z,1.30
2018-01-24T14:15:36.585Z,1.50
2018-01-24T14:18:41.750Z,1.03
2018-01-24T14:21:47.562Z,1.27
2018-01-24T14:24:52.833Z,1.33
2018-01-24T14:27:57.373Z,1.30
2018-01-24T14:31:02.189Z,1.07
2018-01-24T14:34:07.149Z,1.77
2018-01-24T14:37:12.674Z,1.20
2018-01-24T14:40:17.609Z,1.50
2018-01-24T14:43:22.385Z,1.20
2018-01-24T14:46:28.521Z,1.20
2018-01-24T14:49:34.141Z,1.47
2018-01-24T14:52:39.161Z,1.30
2018-01-24T14:55:44.014Z,1.50
2018-01-24T14:58:49.009Z,1.70
2018-01-24T15:01:54.317Z,2.00
2018-01-24T15:04:59.018Z,1.93
2018-01-24T15:08:03.838Z,1.97
2018-01-24T15:11:09.377Z,1.20
2018-01-24T15:14:14.833Z,1.23
2018-01-24T15:17:19.754Z,1.33
2018-01-24T15:20:24.365Z,1.73
2018-01-24T15:23:29.689Z,1.50
2018-01-24T15:26:34.826Z,1.40
2018-01-24T15:29:40.166Z,1.60
2018-01-24T15:32:45.137Z,1.57
2018-01-24T15:35:50.941Z,1.60
2018-01-24T15:38:56.357Z,1.53
2018-01-24T15:42:01.369Z,1.50
2018-01-24T15:45:06.181Z,1.20
2018-01-24T15:48:11.241Z,1.40
2018-01-24T15:51:16.206Z,1.60
2018-01-24T15:54:21.057Z,1.60
2018-01-24T15:57:26.041Z,1.33
2018-01-24T16:00:31.473Z,1.57
2018-01-24T16:03:37.015Z,1.50
2018-01-24T16:06:41.506Z,2.20
2018-01-24T16:09:47.018Z,4.60
2018-01-24T16:12:52.425Z,4.23
2018-01-24T16:15:57.922Z,19.27
2018-01-24T16:19:02.658Z,20.33
2018-01-24T16:22:07.757Z,62.03
2018-01-24T16:25:12.909Z,19.30
2018-01-24T16:28:18.406Z,3.70
2018-01-24T16:31:24.493Z,2.37
2018-01-24T16:34:29.910Z,3.77
2018-01-24T16:37:34.697Z,3.83
2018-01-24T16:40:39.609Z,3.10
2018-01-24T16:43:44.226Z,2.70
2018-01-24T16:46:49.545Z,3.10
2018-01-24T16:49:54.297Z,3.30
2018-01-24T16:52:59.730Z,3.50
2018-01-24T16:56:05.052Z,3.40
2018-01-24T16:59:09.697Z,2.30
2018-01-24T17:02:15.109Z,2.50
2018-01-24T17:05:19.882Z,2.33
2018-01-24T17:08:24.907Z,2.90
2018-01-24T17:11:30.765Z,2.00
2018-01-24T17:14:37.066Z,1.57
2018-01-24T17:17:42.145Z,1.30
2018-01-24T17:20:47.974Z,1.60
2018-01-24T17:23:54.862Z,1.30
2018-01-24T17:26:59.926Z,1.47
2018-01-24T17:30:05.042Z,1.53
2018-01-24T17:33:10.026Z,1.70
2018-01-24T17:36:14.773Z,2.70
2018-01-24T17:39:19.521Z,4.77
2018-01-24T17:42:26.770Z,3.00
2018-01-24T17:45:32.469Z,3.80
2018-01-24T17:48:38.215Z,2.40
2018-01-24T17:51:43.161Z,2.50
2018-01-24T17:54:47.806Z,2.83
2018-01-24T17:57:53.125Z,2.90
2018-01-24T18:00:58.435Z,3.67
2018-01-24T18:04:04.262Z,5.63
2018-01-24T18:07:08.793Z,5.20
2018-01-24T18:10:14.339Z,5.23
2018-01-24T18:13:19.991Z,4.83
2018-01-24T18:16:24.933Z,4.27
2018-01-24T18:19:29.786Z,4.00
2018-01-24T18:22:34.529Z,4.60
2018-01-24T18:25:39.741Z,4.40
2018-01-24T18:28:44.565Z,4.20
2018-01-24T18:31:49.481Z,5.10
2018-01-24T18:34:54.205Z,5.77
2018-01-24T18:37:58.955Z,5.27
2018-01-24T18:41:04.353Z,4.53
2018-01-24T18:44:09.309Z,3.60
2018-01-24T18:47:14.846Z,4.07
2018-01-24T18:50:19.903Z,4.43
2018-01-24T18:53:25.378Z,4.90
2018-01-24T18:56:30.677Z,4.80
2018-01-24T18:59:35.505Z,4.37
2018-01-24T19:02:40.729Z,4.33
2018-01-24T19:05:45.660Z,5.90
2018-01-24T19:08:51.535Z,4.30
2018-01-24T19:11:56.700Z,3.90
2018-01-24T19:15:02.537Z,3.53
2018-01-24T19:18:08.454Z,3.97
2018-01-24T19:21:13.184Z,4.50
2018-01-24T19:24:18.567Z,4.23
2018-01-24T19:27:23.125Z,4.10
2018-01-24T19:30:28.233Z,3.50
2018-01-24T19:33:35.168Z,4.30
2018-01-24T19:36:40.241Z,3.57
2018-01-24T19:39:45.737Z,3.33
2018-01-24T19:42:51.115Z,3.87
2018-01-24T19:45:55.880Z,3.40
2018-01-24T19:49:00.473Z,3.97
2018-01-24T19:52:05.954Z,3.80
2018-01-24T19:55:12.048Z,3.33
2018-01-24T19:58:17.529Z,3.30
2018-01-24T20:01:24.102Z,3.13
2018-01-24T20:04:29.545Z,2.40
2018-01-24T20:07:34.591Z,2.60
2018-01-24T20:10:40.160Z,2.30
2018-01-24T20:13:45.005Z,2.40
2018-01-24T20:16:50.618Z,3.00
2018-01-24T20:19:55.564Z,3.50
2018-01-24T20:23:00.369Z,3.43
2018-01-24T20:26:04.913Z,3.17
2018-01-24T20:29:10.379Z,2.97
2018-01-24T20:32:15.805Z,2.70
2018-01-24T20:35:21.066Z,2.53
2018-01-24T20:38:26.072Z,2.80
2018-01-24T20:41:31.210Z,2.50
2018-01-24T20:44:37.253Z,2.20
2018-01-24T20:47:42.710Z,2.00
2018-01-24T20:50:48.388Z,2.90
2018-01-24T20:53:53.757Z,2.30
2018-01-24T20:56:59.945Z,2.20
2018-01-24T21:00:06.253Z,2.10
2018-01-24T21:03:10.921Z,2.90
2018-01-24T21:06:16.290Z,2.53
2018-01-24T21:09:21.357Z,2.77
2018-01-24T21:12:26.627Z,3.90
2018-01-24T21:15:31.521Z,5.70
2018-01-24T21:18:36.356Z,30.40
2018-01-24T21:21:42.033Z,16.50
2018-01-24T21:24:46.788Z,61.03
2018-01-24T21:27:52.305Z,29.27
2018-01-24T21:31:09.101Z,47.87
2018-01-24T21:34:19.874Z,45.50
2018-01-24T21:37:24.385Z,25.03
2018-01-24T21:40:29.485Z,35.93
2018-01-24T21:43:35.307Z,45.70
2018-01-24T21:46:40.121Z,27.33
2018-01-24T21:49:45.241Z,8.90
2018-01-24T21:52:49.837Z,4.20
2018-01-24T21:55:55.333Z,4.13
2018-01-24T21:59:00.506Z,3.87
2018-01-24T22:02:05.118Z,4.10
2018-01-24T22:05:10.681Z,3.93
2018-01-24T22:08:23.124Z,3.70
2018-01-24T22:11:31.401Z,3.53
2018-01-24T22:14:37.556Z,4.03
2018-01-24T22:17:42.773Z,5.53
2018-01-24T22:20:47.717Z,6.50
2018-01-24T22:23:52.273Z,4.40
2018-01-24T22:26:58.149Z,4.40
2018-01-24T22:30:04.489Z,3.73
2018-01-24T22:33:09.185Z,5.63
2018-01-24T22:36:14.301Z,7.17
2018-01-24T22:39:19.037Z,6.70
2018-01-24T22:42:24.477Z,6.70
2018-01-24T22:45:29.489Z,5.73
2018-01-24T22:48:34.121Z,5.87
2018-01-24T22:51:39.425Z,7.00
2018-01-24T22:54:44.741Z,4.53
2018-01-24T22:57:50.240Z,3.70
2018-01-24T23:00:55.461Z,3.97
2018-01-24T23:04:00.806Z,5.30
2018-01-24T23:07:05.995Z,4.60
2018-01-24T23:10:12.085Z,4.13
2018-01-24T23:13:17.393Z,4.60
2018-01-24T23:16:22.121Z,5.00
2018-01-24T23:19:27.537Z,5.03
2018-01-24T23:22:32.810Z,5.40
2018-01-24T23:25:38.297Z,4.70
2018-01-24T23:28:42.730Z,4.03
2018-01-24T23:31:48.658Z,3.73
2018-01-24T23:34:53.909Z,3.90
2018-01-24T23:37:59.110Z,3.27
2018-01-24T23:41:05.489Z,3.07
2018-01-24T23:44:10.953Z,3.20
2018-01-24T23:47:17.129Z,3.57
2018-01-24T23:50:21.642Z,4.37
2018-01-24T23:53:26.777Z,3.57
2018-01-24T23:56:32.978Z,4.13
2018-01-24T23:59:38.124Z,3.87
